Forsinard, United Kingdom
Current Conditions -  °F | °C
As of 4:50 AM on Saturday 29 Nov 2014 (Local Time) from EGPC Reporting Station
Haze Haze  
Wind Chill: 41°   Ceiling: 500
Heat Index: 48°   Visibility: 2.8mi
Dew Point: 46°   Wind: 20mph
Humidity: 93%   Direction: 160°SSE
Pressure: 29.91"   Gusts: NA
Location:  58.45°N, 3.89°W
Report Text: EGPC 290450Z AUTO 16017KT 4600 BR OVC005/// 09/08 Q1013
Loading
Personal Weather Stations






























Interactive Weather Map New forecast layout! Learn more

10-Day Weather Forecast

Advertisements
Track Severe Weather on mobile